Decoded Metar for ULPB ( in ) (IATA:) | Meteo·Mobile Aviation Weather
aviador You're here:

ULPB Decoded Metar

in
Report Time2019-02-19 13:00:00
UTC Time2019-02-19 13:36:04
Flight Rules vfr VFR
Wind220° at 10 kt
W.Decomp.*RWY 19: 8.7 kt HW 5.0 kt RCW
W.Rank220° ranks 4
Current wind is above 220° avg. (7.6)
Visibility9999 m
Phenomena:N/A
Clouds:N/A
Expected CloudBase > 400 ft AGL from Temp-Dew spread
CeilingNone
Temp02°C
Dew Point01°C (93% RH)
AAT-3.4°C
QNH0997 hPa
Raw Report
METAR ULPB 191300Z AUTO 22005MPS 9999 // ///007/// 02/01 Q0997 RMK
QBB230 QFE744/0992=

Extra information for ULPB:More info

Social comments